Time;durP1;ratioP1;P1;durP2;ratioP2;P2;SDS_P1;SDS_P2;PMS_P1;PMS_P2;Temp;Humidity;BMP_temperature;BMP_pressure;BME280_temperature;BME280_humidity;BME280_pressure;Samples;Min_cycle;Max_cycle;Signal;HPM_P1;HPM_P2
2023/05/31 00:02:35;;;;;;;3.30;2.30;;;;;;;12.46;64.59;97125.87;106543;1285;22524;-85
2023/05/31 00:06:03;;;;;;;5.00;2.10;;;;;;;12.39;65.23;97125.45;106387;1285;138212;-85
2023/05/31 00:09:30;;;;;;;4.50;1.90;;;;;;;12.31;65.38;97121.45;106464;1284;22526;-85
2023/05/31 00:12:57;;;;;;;4.50;1.70;;;;;;;12.28;65.54;97115.23;106550;1284;22596;-85
2023/05/31 00:16:25;;;;;;;4.80;2.10;;;;;;;12.22;65.65;97116.09;106493;1285;26735;-85
2023/05/31 00:19:53;;;;;;;5.70;2.20;;;;;;;12.19;66.21;97116.95;106495;1282;25350;-85
2023/05/31 00:23:21;;;;;;;5.70;1.80;;;;;;;12.13;66.74;97117.80;106552;1283;137786;-85
2023/05/31 00:26:48;;;;;;;5.00;1.90;;;;;;;12.08;67.37;97118.82;106521;1285;22795;-85
2023/05/31 00:30:15;;;;;;;5.60;1.90;;;;;;;12.03;67.87;97119.03;106560;1285;137735;-85
2023/05/31 00:33:42;;;;;;;3.60;1.80;;;;;;;11.99;67.04;97118.73;106577;1281;22647;-85
2023/05/31 00:37:10;;;;;;;4.50;1.60;;;;;;;11.96;67.00;97114.94;106562;1278;24221;-85
2023/05/31 00:40:36;;;;;;;2.90;1.70;;;;;;;11.93;66.26;97112.60;106483;1278;138142;-87
2023/05/31 00:44:04;;;;;;;4.20;2.00;;;;;;;11.91;66.48;97112.41;106510;1279;24162;-85
2023/05/31 00:47:31;;;;;;;3.40;2.40;;;;;;;11.89;66.58;97112.17;106426;1285;138976;-85
2023/05/31 00:50:58;;;;;;;3.00;1.80;;;;;;;11.88;67.00;97110.36;106481;1285;22638;-85
2023/05/31 00:54:25;;;;;;;4.60;2.00;;;;;;;11.87;66.70;97109.56;106411;1285;138040;-85
2023/05/31 00:57:53;;;;;;;4.90;2.00;;;;;;;11.90;66.36;97109.91;106507;1280;22641;-85
2023/05/31 01:01:21;;;;;;;3.60;1.60;;;;;;;11.90;66.24;97114.09;106541;1285;23521;-85
2023/05/31 01:04:48;;;;;;;4.40;2.30;;;;;;;11.89;66.97;97116.63;106439;1284;137483;-85
2023/05/31 01:08:16;;;;;;;3.40;1.80;;;;;;;11.90;66.81;97120.20;106535;1285;22646;-84
2023/05/31 01:11:42;;;;;;;4.30;1.80;;;;;;;11.88;66.47;97120.25;106493;1285;137432;-85
2023/05/31 01:15:14;;;;;;;3.40;1.70;;;;;;;11.84;66.17;97119.66;106501;1285;23279;-85
2023/05/31 01:18:44;;;;;;;3.40;2.10;;;;;;;11.79;66.36;97120.73;109688;1282;137515;-86
2023/05/31 01:22:01;;;;;;;;;;;;;;;;;;;;;
2023/05/31 01:25:35;;;;;;;3.20;2.10;;;;;;;11.72;66.55;97116.81;109616;1268;22213;-86
2023/05/31 01:28:42;;;;;;;;;;;;;;;11.66;67.04;97118.45;108651;1277;138054;-85
2023/05/31 01:32:13;;;;;;;6.30;2.50;;;;;;;11.59;66.03;97119.29;106794;1283;25240;-85
2023/05/31 01:35:37;;;;;;;4.40;2.00;;;;;;;11.53;66.99;97113.30;106474;1283;138487;-85
2023/05/31 01:39:04;;;;;;;5.50;1.80;;;;;;;11.51;67.64;97123.87;106666;1283;24307;-85
2023/05/31 01:42:31;;;;;;;3.90;1.70;;;;;;;11.45;67.49;97123.25;106582;1283;137428;-85
2023/05/31 01:45:59;;;;;;;3.80;1.80;;;;;;;11.35;68.10;97122.10;106693;1282;22537;-85
2023/05/31 01:49:26;;;;;;;2.80;1.80;;;;;;;11.28;68.46;97123.77;106623;1282;22583;-85
2023/05/31 01:52:53;;;;;;;2.60;1.50;;;;;;;11.19;68.36;97122.16;106536;1283;138362;-86
2023/05/31 01:56:20;;;;;;;3.70;1.70;;;;;;;11.12;68.67;97120.08;106625;1283;25321;-85
2023/05/31 01:59:47;;;;;;;2.40;1.50;;;;;;;11.08;69.83;97126.79;106514;1283;138561;-85
2023/05/31 02:03:15;;;;;;;4.80;2.00;;;;;;;11.02;69.41;97122.08;106625;1284;25619;-85
2023/05/31 02:06:57;;;;;;;4.70;1.70;;;;;;;10.96;69.31;97121.77;106598;1283;138042;-86
2023/05/31 02:10:25;;;;;;;4.10;1.80;;;;;;;10.90;69.59;97126.39;106439;1283;22899;-85
2023/05/31 02:13:52;;;;;;;3.20;1.50;;;;;;;10.82;69.67;97128.22;106715;1283;23271;-85
2023/05/31 02:17:23;;;;;;;2.80;1.20;;;;;;;10.78;70.02;97131.62;108159;1281;138675;-85
2023/05/31 02:20:46;;;;;;;3.10;1.60;;;;;;;10.74;69.79;97133.46;106708;1280;22740;-86
2023/05/31 02:24:14;;;;;;;4.00;1.80;;;;;;;10.70;69.72;97132.81;106554;1283;138429;-85
2023/05/31 02:27:42;;;;;;;3.80;1.60;;;;;;;10.67;70.17;97129.38;106582;1279;24376;-85
2023/05/31 02:31:12;;;;;;;3.20;1.90;;;;;;;10.64;69.11;97131.40;109590;1262;138562;-86
2023/05/31 02:34:38;;;;;;;3.30;1.60;;;;;;;10.58;68.88;97129.66;109800;1260;22517;-85
2023/05/31 02:37:56;;;;;;;;;;;;;;;;;;;;;
2023/05/31 02:41:25;;;;;;;4.70;2.10;;;;;;;10.53;69.51;97130.48;106357;1284;138565;-86
2023/05/31 02:44:53;;;;;;;2.30;1.50;;;;;;;10.51;69.06;97128.11;106577;1280;25230;-85
2023/05/31 02:48:21;;;;;;;5.10;2.30;;;;;;;10.49;70.53;97130.73;106489;1281;137570;-85
2023/05/31 02:51:49;;;;;;;3.50;2.00;;;;;;;10.47;70.26;97130.04;108145;1284;25472;-85
2023/05/31 02:55:16;;;;;;;4.30;1.70;;;;;;;10.44;70.17;97132.88;106462;1284;137343;-85
2023/05/31 02:58:43;;;;;;;3.60;2.30;;;;;;;10.38;70.25;97127.59;106557;1284;22654;-85
2023/05/31 03:02:10;;;;;;;5.40;1.90;;;;;;;10.33;70.14;97130.48;106524;1281;22568;-85
2023/05/31 03:05:38;;;;;;;4.20;1.70;;;;;;;10.28;70.44;97129.71;106730;1283;138425;-85
2023/05/31 03:09:05;;;;;;;3.10;1.60;;;;;;;10.22;71.13;97129.72;107104;1282;22692;-85
2023/05/31 03:12:32;;;;;;;5.40;2.10;;;;;;;10.17;70.78;97130.92;106457;1277;138406;-85
2023/05/31 03:16:00;;;;;;;4.30;1.80;;;;;;;10.15;70.84;97134.98;106713;1284;22559;-85
2023/05/31 03:19:27;;;;;;;4.00;1.70;;;;;;;10.13;71.09;97140.70;106401;1284;138256;-85
2023/05/31 03:26:21;;;;;;;2.80;1.60;;;;;;;10.07;71.48;97142.75;107246;1278;22607;-85
2023/05/31 03:29:48;;;;;;;4.30;2.30;;;;;;;10.05;71.53;97145.58;106601;1283;139100;-85
2023/05/31 03:33:07;;;;;;;;;;;;;;;;;;;;;
2023/05/31 03:36:37;;;;;;;5.60;2.20;;;;;;;10.05;72.86;97146.29;106525;1276;138018;-85
2023/05/31 03:40:04;;;;;;;4.80;1.90;;;;;;;10.05;73.08;97145.25;106703;1282;25515;-86
2023/05/31 03:43:31;;;;;;;5.10;1.90;;;;;;;10.02;73.30;97147.75;107279;1279;138308;-85
2023/05/31 03:46:59;;;;;;;7.60;2.50;;;;;;;10.02;73.59;97147.50;106697;1282;25708;-85
2023/05/31 03:50:26;;;;;;;5.20;2.40;;;;;;;10.03;73.58;97148.59;106721;1282;22535;-86
2023/05/31 03:53:54;;;;;;;3.40;1.80;;;;;;;10.00;74.07;97150.38;106653;1282;138704;-86
2023/05/31 03:57:21;;;;;;;4.40;2.40;;;;;;;10.01;74.06;97151.52;106724;1280;22549;-86
2023/05/31 04:00:49;;;;;;;3.90;1.90;;;;;;;10.00;74.40;97152.14;106671;1276;137972;-86
2023/05/31 04:04:16;;;;;;;4.30;2.20;;;;;;;10.02;74.50;97149.92;106628;1284;23899;-85
2023/05/31 04:07:44;;;;;;;6.90;2.40;;;;;;;10.02;75.03;97149.46;106636;1276;22628;-86
2023/05/31 04:11:11;;;;;;;8.60;2.30;;;;;;;10.03;75.30;97149.46;106673;1284;23287;-85
2023/05/31 04:14:38;;;;;;;4.60;2.20;;;;;;;10.02;75.61;97151.13;109321;1276;25433;-85
2023/05/31 04:18:06;;;;;;;5.10;2.60;;;;;;;10.01;76.11;97152.62;106541;1282;138378;-85
2023/05/31 04:25:00;;;;;;;3.90;2.20;;;;;;;10.02;76.65;97151.65;109646;1278;138493;-86
2023/05/31 04:28:19;;;;;;;;;;;;;;;;;;;;;
2023/05/31 04:31:48;;;;;;;3.90;2.30;;;;;;;10.04;77.91;97154.46;106554;1276;138065;-86
2023/05/31 04:35:38;;;;;;;6.70;2.80;;;;;;;10.07;78.27;97151.58;106720;1276;23326;-85
2023/05/31 04:38:47;;;;;;;3.70;2.20;;;;;;;10.09;78.81;97150.89;106774;1275;22583;-85
2023/05/31 04:42:13;;;;;;;7.10;2.50;;;;;;;10.12;79.63;97151.09;106534;1280;138906;-85
2023/05/31 04:45:40;;;;;;;4.30;1.80;;;;;;;10.16;80.09;97154.95;109584;1276;22251;-86
2023/05/31 04:49:08;;;;;;;5.70;2.40;;;;;;;10.21;80.72;97150.65;109784;1276;139054;-85
2023/05/31 04:52:32;;;;;;;;;;;;;;;;;;;;;
2023/05/31 04:56:04;;;;;;;3.80;2.10;;;;;;;10.32;81.44;97152.08;106902;1282;24217;-85
2023/05/31 04:59:29;;;;;;;5.60;2.30;;;;;;;10.39;81.86;97155.20;106692;1282;24423;-85
2023/05/31 05:02:56;;;;;;;6.30;2.70;;;;;;;10.43;82.48;97149.73;106706;1281;22517;-85
2023/05/31 05:06:24;;;;;;;3.10;2.30;;;;;;;10.48;83.03;97150.73;106676;1281;138475;-85
2023/05/31 05:09:43;;;;;;;5.70;2.20;;;;;;;10.52;82.55;97151.89;107152;1281;22564;-85
2023/05/31 05:13:10;;;;;;;6.90;3.00;;;;;;;10.56;83.28;97151.33;106644;1281;137954;-85
2023/05/31 05:16:38;;;;;;;6.70;2.40;;;;;;;10.61;83.70;97149.17;106752;1280;25351;-85
2023/05/31 05:20:05;;;;;;;3.90;2.60;;;;;;;10.66;84.03;97151.95;106639;1277;23874;-85
2023/05/31 05:23:34;;;;;;;4.40;2.60;;;;;;;10.72;83.86;97153.40;109708;1262;22533;-86
2023/05/31 05:27:01;;;;;;;5.70;2.50;;;;;;;10.76;85.00;97150.20;109743;1260;22479;-85
2023/05/31 05:30:28;;;;;;;5.40;2.50;;;;;;;10.86;85.44;97152.61;106395;1276;138313;-85
2023/05/31 05:33:55;;;;;;;5.30;2.30;;;;;;;10.95;85.92;97150.80;106639;1284;24387;-85
2023/05/31 05:37:22;;;;;;;4.50;2.50;;;;;;;11.01;86.19;97157.50;106412;1274;138107;-85
2023/05/31 05:40:50;;;;;;;5.70;2.60;;;;;;;11.09;86.68;97157.08;106625;1284;24410;-86
2023/05/31 05:47:45;;;;;;;10.30;4.20;;;;;;;11.28;87.03;97164.64;106573;1284;22913;-85
2023/05/31 05:51:12;;;;;;;7.90;3.80;;;;;;;11.42;84.99;97167.17;106665;1277;24105;-86
2023/05/31 05:54:39;;;;;;;5.90;3.50;;;;;;;11.57;84.44;97174.20;106453;1284;138489;-85
2023/05/31 05:57:58;;;;;;;6.20;3.30;;;;;;;11.72;85.23;97179.33;106691;1277;23207;-86
2023/05/31 06:01:26;;;;;;;5.90;3.70;;;;;;;11.81;82.99;97180.27;106635;1277;138517;-86
2023/05/31 06:04:52;;;;;;;6.10;3.60;;;;;;;11.94;82.38;97181.41;106616;1277;22576;-85
2023/05/31 06:08:20;;;;;;;5.90;3.60;;;;;;;12.04;80.18;97178.00;106544;1285;22533;-85
2023/05/31 06:11:47;;;;;;;5.40;3.20;;;;;;;12.17;81.16;97183.69;106543;1280;24266;-85
2023/05/31 06:15:15;;;;;;;5.60;3.00;;;;;;;12.25;79.85;97186.91;106572;1285;22662;-85
2023/05/31 06:18:41;;;;;;;5.80;3.40;;;;;;;12.35;78.27;97186.02;106450;1285;139348;-85
2023/05/31 06:22:11;;;;;;;5.10;2.80;;;;;;;12.46;76.96;97188.71;106414;1285;22677;-85
2023/05/31 06:25:36;;;;;;;6.40;3.20;;;;;;;12.56;78.76;97183.57;106416;1284;138397;-85
2023/05/31 06:29:04;;;;;;;6.90;3.10;;;;;;;12.64;79.26;97181.64;106662;1284;25505;-85
2023/05/31 06:32:31;;;;;;;5.40;3.20;;;;;;;12.69;80.34;97180.23;106506;1284;25372;-85
2023/05/31 06:35:59;;;;;;;7.50;3.20;;;;;;;12.73;78.83;97175.23;106500;1284;22570;-85
2023/05/31 06:39:26;;;;;;;5.70;3.60;;;;;;;12.80;77.89;97174.70;106542;1284;22660;-85
2023/05/31 06:42:53;;;;;;;5.90;3.20;;;;;;;12.91;77.65;97171.05;106464;1283;138423;-86
2023/05/31 06:46:20;;;;;;;8.50;3.00;;;;;;;13.01;79.16;97172.49;106587;1284;22667;-86
2023/05/31 06:49:47;;;;;;;9.50;3.90;;;;;;;13.05;78.43;97170.64;106465;1284;139286;-86
2023/05/31 06:53:15;;;;;;;6.70;3.70;;;;;;;13.13;78.39;97172.34;106544;1284;22554;-86
2023/05/31 06:56:42;;;;;;;10.60;4.00;;;;;;;13.23;77.12;97175.05;106633;1277;22571;-86
2023/05/31 07:00:01;;;;;;;8.60;3.80;;;;;;;13.38;76.36;97174.08;106578;1280;22531;-85
2023/05/31 07:03:29;;;;;;;4.20;2.60;;;;;;;13.51;75.14;97172.64;106550;1267;24343;-85
2023/05/31 07:06:56;;;;;;;9.90;3.50;;;;;;;13.64;74.22;97170.32;106491;1284;139226;-86
2023/05/31 07:10:24;;;;;;;6.30;3.60;;;;;;;13.75;72.67;97169.86;106535;1284;22556;-85
2023/05/31 07:13:51;;;;;;;6.40;3.30;;;;;;;13.86;73.40;97166.55;106510;1284;139584;-86
2023/05/31 07:17:18;;;;;;;5.10;2.70;;;;;;;13.95;73.26;97165.63;106606;1277;23033;-86
2023/05/31 07:20:45;;;;;;;7.00;3.10;;;;;;;14.02;75.38;97165.57;106716;1284;22529;-86
2023/05/31 07:24:10;;;;;;;;;;;;;;;;;;;;;
2023/05/31 07:27:39;;;;;;;7.90;2.70;;;;;;;14.19;70.52;97167.63;106539;1279;22590;-86
2023/05/31 07:31:06;;;;;;;7.80;2.50;;;;;;;14.36;70.44;97166.04;106479;1285;138567;-86
2023/05/31 07:34:34;;;;;;;4.30;1.90;;;;;;;14.48;71.59;97166.02;106550;1283;23130;-86
2023/05/31 07:38:01;;;;;;;6.60;2.30;;;;;;;14.56;68.86;97164.48;106354;1280;137498;-85
2023/05/31 07:41:28;;;;;;;6.50;2.30;;;;;;;14.71;67.35;97160.35;106714;1278;26717;-86
2023/05/31 07:44:56;;;;;;;5.20;2.20;;;;;;;14.85;67.72;97158.63;106447;1285;22684;-86
2023/05/31 07:48:24;;;;;;;5.20;1.90;;;;;;;14.95;67.25;97156.27;106591;1280;24252;-86
2023/05/31 07:51:51;;;;;;;6.00;1.70;;;;;;;15.07;65.06;97157.45;106542;1277;22643;-85
2023/05/31 07:55:18;;;;;;;3.80;1.80;;;;;;;15.17;63.66;97154.46;106322;1284;138144;-85
2023/05/31 07:58:46;;;;;;;3.70;1.70;;;;;;;15.28;62.70;97151.02;106547;1284;22732;-85
2023/05/31 08:02:13;;;;;;;2.80;1.60;;;;;;;15.41;60.81;97148.67;106464;1284;138240;-85
2023/05/31 08:05:41;;;;;;;4.40;2.50;;;;;;;15.49;61.05;97151.08;106579;1277;22617;-85
2023/05/31 08:09:08;;;;;;;3.90;1.50;;;;;;;15.55;61.95;97147.88;106550;1277;22533;-86
2023/05/31 08:12:35;;;;;;;2.80;1.80;;;;;;;15.63;61.21;97152.41;106513;1283;25497;-86
2023/05/31 08:19:22;;;;;;;3.20;1.40;;;;;;;15.73;61.01;97152.65;109627;1283;138904;-87
2023/05/31 08:22:50;;;;;;;2.20;1.50;;;;;;;15.84;60.20;97149.04;109859;1267;22177;-88
2023/05/31 08:26:16;;;;;;;3.80;1.50;;;;;;;15.96;60.96;97142.95;109719;1280;137723;-86
2023/05/31 08:33:12;;;;;;;5.20;1.70;;;;;;;16.12;58.23;97146.72;107706;1281;22543;-86
2023/05/31 08:36:40;;;;;;;4.10;1.60;;;;;;;16.20;59.18;97150.40;106736;1275;22654;-86
2023/05/31 08:40:06;;;;;;;4.10;1.80;;;;;;;16.26;57.71;97152.33;106780;1281;22617;-86
2023/05/31 08:43:55;;;;;;;6.00;2.20;;;;;;;16.33;55.26;97152.93;106690;1276;137682;-86
2023/05/31 08:47:03;;;;;;;3.50;1.70;;;;;;;16.42;56.70;97155.80;106680;1281;22605;-86
2023/05/31 08:50:31;;;;;;;4.30;1.80;;;;;;;16.49;56.03;97154.38;106663;1281;137472;-86
2023/05/31 08:53:56;;;;;;;4.10;1.70;;;;;;;16.59;55.32;97150.26;106771;1275;22986;-86
2023/05/31 08:57:24;;;;;;;2.80;1.50;;;;;;;16.69;57.07;97151.23;106760;1275;22543;-86
2023/05/31 09:00:51;;;;;;;2.00;1.50;;;;;;;16.76;56.50;97156.44;106739;1281;22792;-86
2023/05/31 09:04:18;;;;;;;3.60;1.60;;;;;;;16.83;56.45;97154.63;106771;1278;25230;-86
2023/05/31 09:07:49;;;;;;;4.00;1.90;;;;;;;16.88;54.21;97150.58;106730;1274;138066;-86
2023/05/31 09:11:12;;;;;;;4.40;1.90;;;;;;;17.03;52.79;97153.72;106731;1281;22972;-87
2023/05/31 09:14:41;;;;;;;7.10;1.80;;;;;;;17.14;53.79;97154.61;106692;1281;137846;-88
2023/05/31 09:18:08;;;;;;;2.60;1.50;;;;;;;17.23;54.78;97155.31;106736;1281;22674;-86
2023/05/31 09:21:36;;;;;;;3.30;2.20;;;;;;;17.26;54.36;97158.89;106753;1280;25476;-86
2023/05/31 09:25:02;;;;;;;3.10;1.70;;;;;;;17.32;54.03;97156.48;108559;1275;22545;-86
2023/05/31 09:28:30;;;;;;;3.00;1.50;;;;;;;17.40;53.52;97146.67;106789;1281;22536;-86
2023/05/31 09:32:04;;;;;;;5.40;1.70;;;;;;;17.47;54.01;97149.58;106538;1275;138512;-86
2023/05/31 09:35:31;;;;;;;4.00;1.70;;;;;;;17.56;54.93;97153.95;106804;1281;22789;-86
2023/05/31 09:39:00;;;;;;;3.70;1.80;;;;;;;17.62;53.03;97144.52;107067;1275;137921;-85
2023/05/31 09:42:51;;;;;;;4.40;1.80;;;;;;;17.70;54.12;97140.86;106765;1282;24398;-85
2023/05/31 09:45:53;;;;;;;3.80;2.10;;;;;;;17.78;55.31;97138.64;106623;1282;22736;-86
2023/05/31 09:49:20;;;;;;;5.20;2.00;;;;;;;17.81;52.99;97134.69;106629;1280;137689;-86
2023/05/31 09:52:53;;;;;;;4.10;1.80;;;;;;;17.85;52.95;97130.70;106682;1283;25341;-86
2023/05/31 09:56:45;;;;;;;5.40;1.80;;;;;;;17.95;55.01;97125.20;106673;1275;138558;-86
2023/05/31 09:59:48;;;;;;;3.00;1.70;;;;;;;18.06;54.67;97130.85;106648;1275;22780;-86
2023/05/31 10:03:15;;;;;;;3.00;1.50;;;;;;;18.16;54.25;97129.34;106611;1282;138182;-86
2023/05/31 10:06:43;;;;;;;2.90;1.40;;;;;;;18.27;55.99;97132.52;106722;1282;25447;-84
2023/05/31 10:10:10;;;;;;;4.80;2.00;;;;;;;18.27;53.97;97138.30;106705;1282;22665;-84
2023/05/31 10:13:52;;;;;;;3.60;1.80;;;;;;;18.30;53.23;97130.19;106603;1275;138665;-83
2023/05/31 10:17:25;;;;;;;5.40;1.60;;;;;;;18.34;52.77;97123.11;106303;1282;24287;-83
2023/05/31 10:20:52;;;;;;;5.30;1.70;;;;;;;18.36;51.90;97119.52;106575;1282;137908;-84
2023/05/31 10:24:26;;;;;;;3.60;1.50;;;;;;;18.42;52.51;97111.29;106752;1282;22669;-84
2023/05/31 10:27:59;;;;;;;6.80;1.80;;;;;;;18.49;51.78;97114.88;106881;1277;25386;-84
2023/05/31 10:31:26;;;;;;;4.80;1.70;;;;;;;18.49;51.59;97109.98;106613;1281;22661;-84
2023/05/31 10:34:57;;;;;;;4.30;1.50;;;;;;;18.54;51.92;97110.95;106748;1281;22657;-84
2023/05/31 10:38:25;;;;;;;4.90;1.80;;;;;;;18.54;50.57;97104.17;106679;1275;137493;-84
2023/05/31 10:41:55;;;;;;;2.50;1.60;;;;;;;18.61;51.59;97103.63;106647;1280;23287;-84
2023/05/31 10:45:26;;;;;;;3.50;1.60;;;;;;;18.68;53.12;97104.43;106452;1281;137501;-84
2023/05/31 10:49:02;;;;;;;2.40;1.80;;;;;;;18.70;52.21;97108.61;106583;1281;25459;-84
2023/05/31 10:52:47;;;;;;;3.60;1.90;;;;;;;18.79;51.80;97105.77;106724;1281;25412;-84
2023/05/31 10:56:22;;;;;;;5.20;2.00;;;;;;;18.85;51.56;97101.61;106162;1282;138058;-84
2023/05/31 10:59:50;;;;;;;4.80;1.80;;;;;;;18.92;50.73;97096.42;106729;1276;24046;-83
2023/05/31 11:03:17;;;;;;;5.40;1.60;;;;;;;18.98;51.00;97095.50;106687;1281;137490;-84
2023/05/31 11:06:45;;;;;;;4.50;1.90;;;;;;;19.05;52.91;97089.39;106761;1281;22537;-84
2023/05/31 11:10:03;;;;;;;;;;;;;;;;;;;;;
2023/05/31 11:13:38;;;;;;;2.90;2.10;;;;;;;19.11;51.34;97081.52;109532;1281;22962;-84
2023/05/31 11:16:57;;;;;;;;;;;;;;;;;;;;;
2023/05/31 11:20:28;;;;;;;3.60;2.10;;;;;;;19.26;51.36;97072.13;106575;1281;138598;-84
2023/05/31 11:23:56;;;;;;;;;;;;;;;;;;;;;
2023/05/31 11:27:34;;;;;;;3.40;2.40;;;;;;;19.36;50.67;97064.75;107477;1275;137470;-83
2023/05/31 11:31:01;;;;;;;4.20;2.00;;;;;;;19.44;49.53;97059.38;106820;1263;22646;-83
2023/05/31 11:34:29;;;;;;;3.30;1.60;;;;;;;19.46;49.28;97057.89;106734;1275;22837;-84
2023/05/31 11:37:55;;;;;;;4.50;1.90;;;;;;;19.47;49.53;97061.05;106687;1278;137961;-84
2023/05/31 11:41:23;;;;;;;4.60;1.90;;;;;;;19.54;48.99;97059.30;106927;1275;22727;-83
2023/05/31 11:44:50;;;;;;;2.90;1.60;;;;;;;19.55;49.01;97053.65;106686;1277;139766;-84
2023/05/31 11:48:29;;;;;;;5.40;2.00;;;;;;;19.63;48.38;97051.31;106846;1280;22625;-84
2023/05/31 11:51:57;;;;;;;3.70;2.00;;;;;;;19.66;48.21;97057.15;106626;1281;137696;-83
2023/05/31 11:55:28;;;;;;;3.40;1.80;;;;;;;19.70;48.14;97054.52;106905;1280;22735;-83
2023/05/31 11:58:56;;;;;;;3.40;2.00;;;;;;;19.75;48.69;97056.03;106913;1277;22639;-85
2023/05/31 12:02:22;;;;;;;4.80;1.80;;;;;;;19.75;47.92;97058.78;106720;1280;138581;-85
2023/05/31 12:05:52;;;;;;;5.60;1.90;;;;;;;19.82;50.07;97053.31;106869;1280;22531;-85
2023/05/31 12:09:19;;;;;;;3.80;2.30;;;;;;;19.86;48.40;97053.52;106630;1273;138169;-85
2023/05/31 12:12:47;;;;;;;3.00;2.00;;;;;;;19.93;46.81;97052.45;106886;1260;24266;-85
2023/05/31 12:16:14;;;;;;;3.30;1.80;;;;;;;19.96;46.08;97049.73;106694;1280;137577;-85
2023/05/31 12:19:42;;;;;;;5.10;1.80;;;;;;;19.99;46.14;97047.73;106849;1280;22575;-85
2023/05/31 12:23:09;;;;;;;5.10;2.00;;;;;;;20.05;48.05;97048.44;106802;1273;24055;-85
2023/05/31 12:26:37;;;;;;;4.40;1.90;;;;;;;20.06;46.21;97042.39;106802;1279;137968;-85
2023/05/31 12:30:07;;;;;;;5.00;2.00;;;;;;;20.08;47.91;97035.73;106801;1275;24220;-85
2023/05/31 12:33:33;;;;;;;4.50;1.80;;;;;;;20.14;47.54;97032.34;108631;1280;137427;-86
2023/05/31 12:36:58;;;;;;;3.10;1.80;;;;;;;20.20;46.18;97029.83;109173;1280;22619;-85
2023/05/31 12:40:25;;;;;;;6.10;1.60;;;;;;;20.27;45.59;97028.65;106710;1280;137554;-85
2023/05/31 12:43:54;;;;;;;7.90;2.60;;;;;;;20.32;45.15;97026.41;106907;1280;22530;-85
2023/05/31 12:47:22;;;;;;;5.30;2.50;;;;;;;20.41;47.11;97023.98;106752;1280;22611;-85
2023/05/31 12:50:49;;;;;;;3.30;1.70;;;;;;;20.47;46.50;97027.34;106683;1280;137702;-85
2023/05/31 12:54:16;;;;;;;2.90;2.00;;;;;;;20.53;47.03;97026.45;106818;1280;23445;-85
2023/05/31 12:57:43;;;;;;;4.20;2.00;;;;;;;20.59;47.52;97021.45;106740;1280;137601;-85
2023/05/31 13:01:11;;;;;;;2.50;1.70;;;;;;;20.62;46.61;97021.20;106850;1280;24539;-85
2023/05/31 13:04:38;;;;;;;4.60;1.70;;;;;;;20.62;46.66;97020.59;106815;1275;24261;-85
2023/05/31 13:08:06;;;;;;;3.10;1.30;;;;;;;20.63;47.04;97016.95;106822;1273;25972;-85
2023/05/31 13:11:33;;;;;;;3.60;1.60;;;;;;;20.63;43.92;97012.11;106851;1277;22548;-85
2023/05/31 13:15:00;;;;;;;5.00;1.60;;;;;;;20.65;45.65;97017.13;106722;1280;137848;-85
2023/05/31 13:18:27;;;;;;;3.80;1.50;;;;;;;20.72;45.64;97013.89;106884;1280;22708;-85
2023/05/31 13:21:54;;;;;;;4.70;1.60;;;;;;;20.75;45.33;97010.52;106756;1275;138318;-85
2023/05/31 13:25:22;;;;;;;4.00;1.80;;;;;;;20.79;44.19;97006.15;106804;1275;22552;-85
2023/05/31 13:28:49;;;;;;;5.70;1.60;;;;;;;20.79;43.07;97003.98;106838;1273;23116;-85
2023/05/31 13:32:17;;;;;;;4.60;1.40;;;;;;;20.82;45.20;97001.59;106866;1280;23897;-85
2023/05/31 13:35:44;;;;;;;5.80;1.60;;;;;;;20.90;45.85;96994.16;106833;1280;22543;-85
2023/05/31 13:39:13;;;;;;;5.20;2.20;;;;;;;20.98;46.58;96987.35;106695;1280;138137;-85
2023/05/31 13:42:38;;;;;;;3.70;1.90;;;;;;;21.02;45.69;96988.18;106847;1279;22555;-86
2023/05/31 13:46:08;;;;;;;4.20;2.20;;;;;;;21.01;46.76;96992.44;106723;1280;137483;-85
2023/05/31 13:49:30;;;;;;;;;;;;;;;;;;;;;
2023/05/31 13:52:59;;;;;;;3.30;2.10;;;;;;;21.08;48.85;96983.01;106798;1280;22764;-85
2023/05/31 13:56:26;;;;;;;5.80;2.60;;;;;;;21.09;46.59;96977.14;106825;1274;24125;-85
2023/05/31 13:59:57;;;;;;;5.00;2.20;;;;;;;21.10;47.18;96976.59;106798;1280;22647;-85
2023/05/31 14:03:21;;;;;;;6.00;2.10;;;;;;;21.17;47.76;96968.04;106732;1275;138850;-85
2023/05/31 14:06:48;;;;;;;3.20;2.10;;;;;;;21.16;45.87;96971.07;106866;1280;25410;-85
2023/05/31 14:10:15;;;;;;;5.20;2.50;;;;;;;21.04;45.38;96973.95;106879;1275;137565;-85
2023/05/31 14:13:43;;;;;;;4.40;2.10;;;;;;;21.04;47.20;96971.27;106892;1280;23481;-85
2023/05/31 14:17:10;;;;;;;3.80;1.90;;;;;;;21.05;46.58;96972.02;106839;1269;22593;-85
2023/05/31 14:20:37;;;;;;;4.40;2.10;;;;;;;21.09;46.56;96960.93;106833;1275;24462;-85
2023/05/31 14:24:04;;;;;;;3.20;2.00;;;;;;;21.10;46.55;96957.10;106881;1280;24449;-85
2023/05/31 14:27:27;;;;;;;4.80;2.10;;;;;;;21.18;49.45;96959.92;106814;1275;137879;-85
2023/05/31 14:30:52;;;;;;;6.80;2.30;;;;;;;21.22;46.34;96959.04;106821;1280;22743;-85
2023/05/31 14:34:20;;;;;;;6.00;2.40;;;;;;;21.25;48.35;96959.02;106686;1278;137521;-85
2023/05/31 14:37:45;;;;;;;;;;;;;;;;;;;;;
